createdAt,value
2019-05-19T00:01:24.984Z,156.03
2019-05-19T00:03:54.005Z,183.60
2019-05-19T00:06:23.056Z,150.53
2019-05-19T00:08:52.104Z,183.07
2019-05-19T00:11:21.119Z,162.97
2019-05-19T00:13:50.261Z,112.63
2019-05-19T00:16:19.615Z,169.80
2019-05-19T00:18:48.656Z,169.07
2019-05-19T00:21:17.704Z,213.63
2019-05-19T00:23:46.735Z,202.57
2019-05-19T00:26:15.770Z,185.53
2019-05-19T00:28:44.827Z,197.47
2019-05-19T00:31:14.093Z,179.78
2019-05-19T00:33:44.186Z,146.27
2019-05-19T00:36:14.187Z,153.10
2019-05-19T00:38:44.764Z,161.10
2019-05-19T00:41:14.209Z,158.90
2019-05-19T00:43:44.791Z,160.30
2019-05-19T00:46:14.352Z,159.80
2019-05-19T00:48:44.522Z,138.30
2019-05-19T00:51:14.616Z,132.00
2019-05-19T00:53:44.206Z,133.43
2019-05-19T00:56:14.403Z,97.80
2019-05-19T00:58:44.946Z,96.65
2019-05-19T01:01:14.349Z,106.15
2019-05-19T01:03:44.345Z,80.12
2019-05-19T01:06:14.396Z,73.33
2019-05-19T01:08:44.679Z,96.37
2019-05-19T01:11:14.699Z,81.35
2019-05-19T01:13:44.340Z,56.85
2019-05-19T01:16:14.468Z,83.33
2019-05-19T01:18:44.462Z,70.72
2019-05-19T01:21:15.598Z,88.65
2019-05-19T01:23:45.417Z,74.13
2019-05-19T01:26:14.590Z,84.07
2019-05-19T01:28:44.615Z,71.92
2019-05-19T01:31:14.557Z,76.92
2019-05-19T01:33:44.549Z,88.52
2019-05-19T01:36:14.563Z,79.53
2019-05-19T01:38:44.611Z,68.67
2019-05-19T01:41:14.874Z,84.77
2019-05-19T01:43:44.662Z,72.95
2019-05-19T01:46:14.658Z,80.38
2019-05-19T01:48:44.642Z,95.60
2019-05-19T01:51:14.695Z,123.13
2019-05-19T01:53:45.299Z,110.65
2019-05-19T01:56:14.720Z,108.90
2019-05-19T01:58:45.139Z,94.15
2019-05-19T02:01:14.749Z,94.42
2019-05-19T02:03:44.779Z,99.70
2019-05-19T02:06:14.780Z,87.88
2019-05-19T02:08:44.787Z,113.55
2019-05-19T02:11:14.854Z,98.92
2019-05-19T02:13:44.827Z,99.13
2019-05-19T02:16:15.177Z,105.67
2019-05-19T02:18:44.868Z,70.52
2019-05-19T02:21:14.910Z,90.83
2019-05-19T02:23:45.267Z,104.97
2019-05-19T02:26:14.909Z,79.53
2019-05-19T02:28:44.988Z,103.90
2019-05-19T02:31:15.080Z,81.42
2019-05-19T02:33:44.979Z,88.15
2019-05-19T02:36:14.990Z,85.07
2019-05-19T02:38:45.010Z,92.15
2019-05-19T02:41:17.653Z,89.58
2019-05-19T02:43:47.900Z,122.70
2019-05-19T02:46:17.361Z,140.90
2019-05-19T02:48:46.998Z,117.37
2019-05-19T02:51:19.339Z,128.53
2019-05-19T02:53:50.962Z,128.00
2019-05-19T02:56:20.590Z,150.57
2019-05-19T02:58:50.224Z,129.83
2019-05-19T03:01:19.194Z,202.27
2019-05-19T03:03:48.222Z,147.80
2019-05-19T03:06:17.278Z,173.87
2019-05-19T03:08:46.671Z,175.17
2019-05-19T03:11:15.673Z,178.83
2019-05-19T03:13:45.284Z,174.42
2019-05-19T03:16:15.263Z,188.30
2019-05-19T03:18:45.406Z,215.68
2019-05-19T03:21:15.622Z,226.95
2019-05-19T03:23:45.441Z,183.10
2019-05-19T03:26:15.333Z,249.30
2019-05-19T03:28:45.384Z,191.90
2019-05-19T03:31:25.626Z,200.38
2019-05-19T03:33:54.584Z,145.33
2019-05-19T03:36:23.939Z,108.10
2019-05-19T03:38:52.881Z,108.53
2019-05-19T03:41:21.903Z,95.83
2019-05-19T03:43:50.940Z,95.90
2019-05-19T03:46:19.938Z,92.23
2019-05-19T03:48:48.893Z,74.77
2019-05-19T03:51:30.240Z,75.97
2019-05-19T03:53:48.605Z,85.40
2019-05-19T03:56:17.628Z,60.60
2019-05-19T03:58:46.656Z,73.60
2019-05-19T04:01:15.686Z,62.57
2019-05-19T04:03:45.611Z,73.80
2019-05-19T04:06:15.930Z,65.15
2019-05-19T04:08:45.968Z,57.17
2019-05-19T04:11:15.661Z,57.00
2019-05-19T04:13:45.679Z,43.23
2019-05-19T04:16:15.990Z,47.55
2019-05-19T04:18:45.718Z,51.13
2019-05-19T04:21:15.723Z,56.73
2019-05-19T04:23:45.758Z,53.98
2019-05-19T04:26:15.689Z,50.92
2019-05-19T04:28:45.765Z,59.73
2019-05-19T04:31:15.798Z,58.13
2019-05-19T04:33:45.808Z,76.92
2019-05-19T04:36:15.817Z,63.48
2019-05-19T04:38:45.843Z,77.58
2019-05-19T04:41:15.864Z,76.60
2019-05-19T04:43:45.891Z,80.45
2019-05-19T04:46:15.890Z,57.53
2019-05-19T04:48:45.927Z,51.18
2019-05-19T04:51:15.832Z,42.00
2019-05-19T04:53:44.786Z,42.33
2019-05-19T04:56:13.803Z,44.50
2019-05-19T04:58:42.819Z,42.00
2019-05-19T05:01:11.844Z,36.80
2019-05-19T05:03:40.887Z,40.70
2019-05-19T05:06:10.104Z,43.42
2019-05-19T05:08:39.607Z,32.20
2019-05-19T05:11:08.638Z,41.00
2019-05-19T05:13:37.576Z,47.70
2019-05-19T05:16:06.609Z,37.53
2019-05-19T05:18:35.562Z,38.17
2019-05-19T05:21:04.991Z,41.20
2019-05-19T05:23:34.015Z,34.03
2019-05-19T05:26:03.391Z,39.40
2019-05-19T05:28:32.322Z,28.53
2019-05-19T05:31:01.360Z,31.27
2019-05-19T05:33:30.370Z,29.10
2019-05-19T05:35:59.414Z,30.80
2019-05-19T05:38:28.346Z,32.73
2019-05-19T05:40:57.305Z,30.10
2019-05-19T05:43:26.597Z,33.93
2019-05-19T05:45:55.635Z,28.33
2019-05-19T05:48:24.646Z,36.80
2019-05-19T05:50:53.690Z,36.13
2019-05-19T05:53:22.733Z,33.13
2019-05-19T05:55:51.747Z,28.70
2019-05-19T05:58:21.107Z,28.33
2019-05-19T06:00:50.160Z,32.27
2019-05-19T06:03:19.189Z,30.57
2019-05-19T06:05:48.215Z,34.27
2019-05-19T06:08:17.259Z,32.10
2019-05-19T06:10:46.481Z,29.55
2019-05-19T06:13:16.527Z,27.42
2019-05-19T06:15:46.517Z,27.50
2019-05-19T06:18:16.534Z,26.97
2019-05-19T06:20:46.540Z,27.50
2019-05-19T06:23:16.687Z,30.90
2019-05-19T06:25:46.616Z,26.93
2019-05-19T06:28:16.517Z,26.00
2019-05-19T06:30:46.625Z,26.10
2019-05-19T06:33:15.652Z,26.23
2019-05-19T06:35:44.682Z,27.90
2019-05-19T06:38:13.650Z,27.30
2019-05-19T06:40:42.720Z,27.47
2019-05-19T06:43:11.777Z,29.17
2019-05-19T06:45:40.804Z,28.67
2019-05-19T06:48:09.877Z,27.30
2019-05-19T06:50:40.722Z,29.80
2019-05-19T06:53:13.973Z,26.07
2019-05-19T06:55:40.738Z,33.77
2019-05-19T06:58:09.700Z,29.30
2019-05-19T07:00:39.208Z,30.87
2019-05-19T07:03:08.303Z,36.40
2019-05-19T07:05:37.280Z,48.67
2019-05-19T07:08:06.314Z,51.33
2019-05-19T07:10:35.462Z,42.83
2019-05-19T07:13:04.472Z,50.40
2019-05-19T07:15:33.531Z,56.53
2019-05-19T07:18:02.894Z,57.43
2019-05-19T07:20:31.947Z,46.37
2019-05-19T07:23:01.027Z,55.43
2019-05-19T07:25:30.049Z,48.27
2019-05-19T07:27:59.229Z,52.30
2019-05-19T07:30:28.251Z,50.20
2019-05-19T07:32:57.211Z,51.73
2019-05-19T07:35:26.314Z,47.45
2019-05-19T07:37:55.360Z,42.83
2019-05-19T07:40:24.402Z,38.87
2019-05-19T07:42:53.674Z,34.63
2019-05-19T07:45:22.799Z,36.13
2019-05-19T07:47:51.845Z,40.03
2019-05-19T07:50:21.129Z,36.33
2019-05-19T07:52:50.123Z,33.23
2019-05-19T07:55:19.135Z,32.90
2019-05-19T07:57:48.193Z,32.90
2019-05-19T08:00:17.404Z,32.87
2019-05-19T08:02:46.447Z,33.70
2019-05-19T08:05:15.569Z,31.40
2019-05-19T08:07:44.587Z,31.23
2019-05-19T08:10:13.737Z,32.57
2019-05-19T08:12:43.123Z,31.97
2019-05-19T08:15:12.728Z,32.08
2019-05-19T08:17:43.022Z,32.78
2019-05-19T08:20:13.151Z,27.93
2019-05-19T08:22:42.777Z,32.30
2019-05-19T08:25:13.102Z,31.75
2019-05-19T08:27:42.828Z,32.30
2019-05-19T08:30:13.119Z,31.30
2019-05-19T08:32:42.752Z,27.70
2019-05-19T08:35:12.776Z,29.75
2019-05-19T08:37:42.786Z,30.97
2019-05-19T08:40:12.784Z,28.95
2019-05-19T08:42:43.143Z,29.60
2019-05-19T08:45:14.354Z,27.85
2019-05-19T08:47:43.425Z,27.87
2019-05-19T08:50:13.246Z,28.38
2019-05-19T08:52:43.295Z,27.27
2019-05-19T08:55:13.016Z,25.62
2019-05-19T08:57:42.963Z,23.80
2019-05-19T09:00:12.920Z,24.00
2019-05-19T09:02:42.782Z,23.47
2019-05-19T09:05:12.880Z,22.73
2019-05-19T09:07:43.180Z,21.35
2019-05-19T09:10:13.106Z,20.57
2019-05-19T09:12:43.064Z,20.95
2019-05-19T09:15:13.055Z,20.32
2019-05-19T09:17:42.939Z,19.83
2019-05-19T09:20:13.949Z,21.30
2019-05-19T09:22:43.286Z,19.20
2019-05-19T09:25:13.095Z,19.37
2019-05-19T09:27:42.940Z,18.27
2019-05-19T09:30:13.561Z,21.05
2019-05-19T09:32:42.939Z,19.20
2019-05-19T09:35:13.368Z,18.62
2019-05-19T09:37:42.996Z,18.60
2019-05-19T09:40:14.439Z,18.95
2019-05-19T09:42:43.449Z,20.17
2019-05-19T09:45:13.935Z,20.65
2019-05-19T09:47:43.467Z,20.43
2019-05-19T09:50:13.956Z,23.77
2019-05-19T09:52:43.125Z,22.35
2019-05-19T09:55:13.115Z,22.77
2019-05-19T09:57:43.057Z,21.05
2019-05-19T10:00:13.549Z,23.10
2019-05-19T10:02:43.183Z,20.27
2019-05-19T10:05:13.663Z,22.25
2019-05-19T10:07:43.202Z,21.57
2019-05-19T10:10:16.780Z,21.73
2019-05-19T10:12:45.827Z,22.07
2019-05-19T10:15:15.299Z,19.33
2019-05-19T10:17:44.279Z,19.87
2019-05-19T10:20:14.325Z,19.40
2019-05-19T10:22:43.342Z,18.90
2019-05-19T10:25:22.671Z,18.50
2019-05-19T10:27:44.383Z,17.73
2019-05-19T10:30:14.101Z,18.80
2019-05-19T10:32:43.258Z,19.47
2019-05-19T10:35:13.515Z,18.95
2019-05-19T10:37:43.307Z,18.75
2019-05-19T10:40:13.619Z,20.47
2019-05-19T10:42:43.419Z,20.80
2019-05-19T10:45:13.515Z,19.95
2019-05-19T10:47:43.364Z,19.40
2019-05-19T10:50:13.820Z,22.67
2019-05-19T10:52:43.396Z,20.52
2019-05-19T10:55:13.767Z,21.10
2019-05-19T10:57:43.673Z,20.90
2019-05-19T11:00:13.927Z,22.67
2019-05-19T11:02:43.391Z,24.20
2019-05-19T11:05:13.525Z,23.27
2019-05-19T11:07:43.430Z,23.10
2019-05-19T11:10:13.539Z,22.02
2019-05-19T11:12:46.713Z,23.02
2019-05-19T11:15:14.524Z,22.93
2019-05-19T11:17:43.664Z,22.87
2019-05-19T11:20:13.717Z,21.35
2019-05-19T11:22:43.720Z,21.62
2019-05-19T11:25:13.518Z,21.60
2019-05-19T11:27:42.580Z,21.47
2019-05-19T11:30:13.110Z,20.90
2019-05-19T11:32:42.128Z,20.23
2019-05-19T11:35:11.369Z,21.70
2019-05-19T11:37:40.383Z,19.77
2019-05-19T11:40:09.435Z,20.40
2019-05-19T11:42:38.455Z,21.93
2019-05-19T11:45:07.504Z,20.50
2019-05-19T11:47:36.836Z,22.50
2019-05-19T11:50:06.343Z,21.33
2019-05-19T11:52:35.360Z,23.27
2019-05-19T11:55:04.591Z,20.63
2019-05-19T11:57:33.628Z,22.77
2019-05-19T12:00:02.647Z,21.27
2019-05-19T12:02:32.017Z,22.90
2019-05-19T12:05:00.988Z,23.13
2019-05-19T12:07:29.998Z,22.53
2019-05-19T12:09:59.589Z,23.17
2019-05-19T12:12:28.635Z,22.70
2019-05-19T12:14:57.647Z,21.77
2019-05-19T12:17:26.619Z,20.90
2019-05-19T12:19:55.639Z,23.07
2019-05-19T12:22:24.696Z,23.33
2019-05-19T12:24:53.720Z,24.07
2019-05-19T12:27:22.687Z,23.23
2019-05-19T12:29:51.729Z,24.30
2019-05-19T12:32:21.055Z,25.27
2019-05-19T12:34:50.093Z,24.20
2019-05-19T12:37:19.131Z,25.30
2019-05-19T12:39:48.140Z,24.43
2019-05-19T12:42:17.531Z,23.03
2019-05-19T12:44:46.563Z,25.70
2019-05-19T12:47:15.576Z,26.60
2019-05-19T12:49:44.618Z,24.13
2019-05-19T12:52:14.219Z,25.40
2019-05-19T12:54:44.192Z,26.10
2019-05-19T12:57:14.104Z,25.40
2019-05-19T12:59:44.196Z,28.07
2019-05-19T13:02:14.208Z,28.15
2019-05-19T13:04:44.484Z,27.50
2019-05-19T13:07:14.257Z,28.12
2019-05-19T13:09:44.187Z,29.33
2019-05-19T13:12:14.275Z,29.55
2019-05-19T13:14:44.225Z,28.95
2019-05-19T13:17:14.366Z,29.18
2019-05-19T13:19:44.954Z,27.48
2019-05-19T13:22:14.324Z,30.27
2019-05-19T13:24:44.373Z,32.15
2019-05-19T13:27:14.394Z,35.70
2019-05-19T13:29:44.394Z,30.32
2019-05-19T13:32:14.396Z,30.12
2019-05-19T13:34:44.416Z,30.20
2019-05-19T13:37:14.470Z,30.37
2019-05-19T13:39:44.478Z,29.65
2019-05-19T13:42:14.480Z,28.38
2019-05-19T13:44:44.503Z,31.25
2019-05-19T13:47:14.519Z,27.33
2019-05-19T13:49:44.545Z,29.55
2019-05-19T13:52:14.676Z,31.93
2019-05-19T13:54:44.546Z,32.03
2019-05-19T13:57:14.618Z,31.73
2019-05-19T13:59:44.618Z,29.37
2019-05-19T14:02:14.612Z,29.70
2019-05-19T14:04:44.583Z,28.30
2019-05-19T14:07:14.673Z,29.50
2019-05-19T14:09:45.023Z,30.62
2019-05-19T14:12:14.692Z,29.72
2019-05-19T14:14:44.567Z,27.60
2019-05-19T14:17:13.611Z,31.20
2019-05-19T14:19:42.667Z,28.23
2019-05-19T14:22:11.998Z,27.97
2019-05-19T14:24:41.046Z,26.07
2019-05-19T14:27:12.944Z,28.07
2019-05-19T14:29:40.871Z,29.17
2019-05-19T14:32:09.928Z,27.50
2019-05-19T14:34:39.200Z,28.60
2019-05-19T14:37:08.215Z,28.23
2019-05-19T14:39:37.507Z,26.80
2019-05-19T14:42:10.174Z,25.97
2019-05-19T14:44:39.211Z,28.30
2019-05-19T14:47:08.227Z,27.13
2019-05-19T14:49:37.280Z,26.27
2019-05-19T14:52:06.319Z,26.43
2019-05-19T14:54:35.722Z,25.47
2019-05-19T14:57:04.768Z,28.70
2019-05-19T14:59:33.816Z,26.03
2019-05-19T15:02:02.851Z,28.07
2019-05-19T15:04:32.005Z,27.00
2019-05-19T15:07:01.034Z,25.90
2019-05-19T15:09:30.360Z,28.33
2019-05-19T15:11:59.756Z,28.43
2019-05-19T15:14:28.787Z,28.47
2019-05-19T15:16:57.837Z,28.50
2019-05-19T15:19:27.093Z,28.80
2019-05-19T15:21:56.126Z,29.52
2019-05-19T15:24:25.253Z,28.80
2019-05-19T15:26:54.198Z,31.10
2019-05-19T15:29:23.231Z,27.40
2019-05-19T15:31:52.301Z,28.35
2019-05-19T15:34:21.233Z,27.20
2019-05-19T15:36:50.235Z,28.13
2019-05-19T15:39:19.569Z,27.53
2019-05-19T15:41:48.615Z,26.07
2019-05-19T15:44:17.636Z,26.33
2019-05-19T15:46:46.679Z,26.47
2019-05-19T15:49:15.704Z,27.53
2019-05-19T15:52:00.254Z,26.55
2019-05-19T15:54:16.136Z,25.90
2019-05-19T15:56:45.324Z,26.42
2019-05-19T15:59:15.260Z,25.90
2019-05-19T16:01:46.635Z,25.40
2019-05-19T16:04:15.885Z,25.07
2019-05-19T16:06:45.432Z,24.87
2019-05-19T16:09:15.474Z,26.57
2019-05-19T16:11:47.446Z,27.20
2019-05-19T16:14:16.441Z,25.30
2019-05-19T16:16:45.464Z,26.90
2019-05-19T16:19:15.445Z,25.50
2019-05-19T16:21:45.771Z,25.48
2019-05-19T16:24:15.481Z,24.47
2019-05-19T16:26:45.516Z,25.27
2019-05-19T16:29:15.515Z,25.52
2019-05-19T16:31:45.569Z,24.50
2019-05-19T16:34:15.865Z,24.03
2019-05-19T16:36:45.604Z,23.70
2019-05-19T16:39:15.694Z,24.77
2019-05-19T16:41:45.655Z,26.57
2019-05-19T16:44:15.611Z,24.70
2019-05-19T16:46:45.672Z,22.87
2019-05-19T16:49:15.660Z,22.32
2019-05-19T16:51:45.824Z,25.90
2019-05-19T16:54:20.925Z,24.60
2019-05-19T16:56:49.936Z,24.50
2019-05-19T16:59:18.998Z,25.07
2019-05-19T17:01:48.061Z,25.48
2019-05-19T17:04:17.077Z,25.77
2019-05-19T17:06:46.106Z,27.03
2019-05-19T17:09:15.177Z,27.27
2019-05-19T17:11:44.230Z,26.17
2019-05-19T17:14:13.266Z,25.47
2019-05-19T17:16:42.296Z,24.90
2019-05-19T17:19:11.342Z,27.50
2019-05-19T17:21:40.367Z,24.13
2019-05-19T17:24:09.389Z,23.83
2019-05-19T17:26:38.472Z,25.27
2019-05-19T17:29:07.485Z,25.97
2019-05-19T17:31:36.497Z,26.47
2019-05-19T17:34:05.570Z,24.60
2019-05-19T17:36:34.668Z,24.70
2019-05-19T17:39:04.951Z,25.27
2019-05-19T17:41:33.992Z,27.23
2019-05-19T17:44:02.997Z,25.87
2019-05-19T17:46:32.496Z,26.97
2019-05-19T17:49:01.887Z,24.72
2019-05-19T17:51:31.855Z,24.35
2019-05-19T17:54:01.887Z,27.02
2019-05-19T17:56:32.629Z,25.08
2019-05-19T17:59:15.869Z,24.85
2019-05-19T18:01:33.386Z,25.07
2019-05-19T18:04:02.398Z,24.97
2019-05-19T18:06:31.980Z,26.35
2019-05-19T18:09:01.914Z,24.10
2019-05-19T18:11:30.977Z,26.93
2019-05-19T18:14:00.280Z,26.63
2019-05-19T18:16:29.319Z,24.83
2019-05-19T18:18:58.329Z,24.97
2019-05-19T18:21:27.653Z,24.20
2019-05-19T18:23:56.907Z,27.70
2019-05-19T18:26:25.943Z,27.93
2019-05-19T18:28:55.003Z,27.53
2019-05-19T18:31:24.037Z,28.27
2019-05-19T18:33:55.844Z,25.77
2019-05-19T18:36:24.927Z,26.27
2019-05-19T18:38:53.898Z,26.97
2019-05-19T18:41:22.861Z,28.03
2019-05-19T18:43:51.889Z,27.80
2019-05-19T18:46:20.931Z,27.33
2019-05-19T18:48:49.968Z,29.93
2019-05-19T18:51:18.999Z,31.83
2019-05-19T18:53:48.043Z,30.23
2019-05-19T18:56:17.056Z,30.57
2019-05-19T18:58:46.098Z,33.37
2019-05-19T19:01:15.275Z,32.67
2019-05-19T19:03:44.350Z,31.00
2019-05-19T19:06:13.392Z,33.57
2019-05-19T19:08:43.078Z,32.48
2019-05-19T19:11:12.086Z,31.57
2019-05-19T19:13:41.286Z,31.43
2019-05-19T19:16:10.337Z,30.77
2019-05-19T19:18:39.739Z,31.77
2019-05-19T19:21:08.859Z,31.60
2019-05-19T19:23:37.871Z,36.40
2019-05-19T19:26:06.921Z,33.70
2019-05-19T19:28:35.851Z,34.77
2019-05-19T19:31:04.890Z,32.70
2019-05-19T19:33:33.906Z,32.50
2019-05-19T19:36:02.956Z,31.90
2019-05-19T19:38:32.656Z,34.73
2019-05-19T19:41:02.709Z,36.68
2019-05-19T19:43:33.155Z,36.97
2019-05-19T19:46:02.761Z,39.65
2019-05-19T19:48:32.926Z,36.97
2019-05-19T19:51:02.826Z,40.20
2019-05-19T19:53:33.090Z,42.30
2019-05-19T19:56:03.063Z,42.38
2019-05-19T19:58:32.762Z,45.40
2019-05-19T20:01:02.861Z,44.87
2019-05-19T20:03:32.926Z,43.53
2019-05-19T20:06:02.917Z,45.67
2019-05-19T20:08:33.070Z,45.20
2019-05-19T20:11:03.031Z,45.92
2019-05-19T20:13:32.860Z,52.00
2019-05-19T20:16:02.910Z,46.00
2019-05-19T20:18:32.893Z,49.73
2019-05-19T20:21:02.888Z,46.90
2019-05-19T20:23:32.930Z,47.65
2019-05-19T20:26:02.951Z,47.80
2019-05-19T20:28:32.961Z,51.13
2019-05-19T20:31:02.975Z,46.50
2019-05-19T20:33:33.152Z,49.93
2019-05-19T20:36:04.477Z,49.00
2019-05-19T20:38:33.441Z,49.23
2019-05-19T20:41:02.960Z,53.40
2019-05-19T20:43:32.088Z,51.10
2019-05-19T20:46:01.477Z,52.40
2019-05-19T20:48:32.777Z,54.60
2019-05-19T20:51:01.907Z,55.27
2019-05-19T20:53:30.924Z,49.57
2019-05-19T20:56:00.006Z,51.87
2019-05-19T20:58:28.910Z,51.80
2019-05-19T21:00:57.933Z,54.23
2019-05-19T21:03:26.982Z,51.30
2019-05-19T21:05:56.055Z,49.33
2019-05-19T21:08:25.166Z,48.73
2019-05-19T21:10:54.240Z,50.77
2019-05-19T21:13:23.243Z,46.23
2019-05-19T21:15:52.247Z,45.87
2019-05-19T21:18:21.267Z,44.27
2019-05-19T21:20:50.237Z,46.88
2019-05-19T21:23:19.264Z,46.83
2019-05-19T21:25:48.336Z,47.50
2019-05-19T21:28:17.341Z,46.20
2019-05-19T21:30:46.371Z,48.03
2019-05-19T21:33:15.403Z,44.40
2019-05-19T21:35:44.452Z,46.60
2019-05-19T21:38:13.472Z,45.53
2019-05-19T21:40:42.503Z,50.33
2019-05-19T21:43:11.545Z,50.03
2019-05-19T21:45:40.596Z,49.73
2019-05-19T21:48:09.605Z,46.03
2019-05-19T21:50:38.627Z,49.60
2019-05-19T21:53:07.660Z,47.73
2019-05-19T21:55:36.731Z,48.67
2019-05-19T21:58:05.741Z,46.97
2019-05-19T22:00:35.703Z,46.00
2019-05-19T22:03:04.821Z,45.63
2019-05-19T22:05:35.071Z,42.30
2019-05-19T22:08:11.268Z,42.38
2019-05-19T22:10:40.302Z,41.13
2019-05-19T22:13:09.323Z,39.80
2019-05-19T22:15:38.346Z,39.07
2019-05-19T22:18:07.368Z,41.03
2019-05-19T22:20:36.441Z,36.83
2019-05-19T22:23:05.457Z,37.27
2019-05-19T22:25:35.011Z,37.20
2019-05-19T22:28:04.998Z,36.45
2019-05-19T22:30:35.041Z,36.28
2019-05-19T22:33:05.039Z,37.25
2019-05-19T22:35:35.074Z,35.68
2019-05-19T22:38:05.072Z,34.00
2019-05-19T22:40:35.082Z,34.67
2019-05-19T22:43:05.123Z,34.60
2019-05-19T22:45:35.122Z,37.20
2019-05-19T22:48:05.181Z,36.60
2019-05-19T22:50:35.156Z,35.15
2019-05-19T22:53:05.478Z,38.80
2019-05-19T22:55:35.201Z,40.00
2019-05-19T22:58:05.241Z,40.90
2019-05-19T23:00:35.228Z,43.90
2019-05-19T23:03:05.259Z,40.23
2019-05-19T23:05:35.530Z,43.25
2019-05-19T23:08:05.299Z,39.38
2019-05-19T23:10:35.286Z,49.33
2019-05-19T23:13:08.188Z,48.28
2019-05-19T23:15:36.432Z,68.67
2019-05-19T23:18:05.475Z,51.67
2019-05-19T23:20:35.390Z,54.23
2019-05-19T23:23:05.419Z,58.78
2019-05-19T23:25:35.391Z,64.15
2019-05-19T23:28:05.440Z,60.55
2019-05-19T23:30:35.452Z,57.98
2019-05-19T23:33:05.448Z,61.15
2019-05-19T23:35:35.418Z,54.08
2019-05-19T23:38:05.522Z,50.25
2019-05-19T23:40:35.495Z,46.18
2019-05-19T23:43:05.530Z,58.13
2019-05-19T23:45:35.576Z,49.38
2019-05-19T23:48:05.587Z,58.50
2019-05-19T23:50:35.590Z,67.85
2019-05-19T23:53:05.910Z,61.40
2019-05-19T23:55:35.547Z,60.92
2019-05-19T23:58:05.653Z,52.08
